sensor_id;sensor_type;location;lat;lon;timestamp;P1;durP1;ratioP1;P2;durP2;ratioP2
13114;SDS011;6623;52.120;8.660;2022-12-24T00:02:10;9.30;;;3.50;;
13114;SDS011;6623;52.120;8.660;2022-12-24T00:04:35;8.90;;;3.20;;
13114;SDS011;6623;52.120;8.660;2022-12-24T00:07:01;10.00;;;3.57;;
13114;SDS011;6623;52.120;8.660;2022-12-24T00:09:30;10.20;;;3.00;;
13114;SDS011;6623;52.120;8.660;2022-12-24T00:11:55;10.67;;;3.27;;
13114;SDS011;6623;52.120;8.660;2022-12-24T00:14:24;9.90;;;3.40;;
13114;SDS011;6623;52.120;8.660;2022-12-24T00:16:49;11.47;;;3.03;;
13114;SDS011;6623;52.120;8.660;2022-12-24T00:19:15;7.57;;;2.73;;
13114;SDS011;6623;52.120;8.660;2022-12-24T00:21:40;7.47;;;2.53;;
13114;SDS011;6623;52.120;8.660;2022-12-24T00:24:06;7.17;;;2.90;;
13114;SDS011;6623;52.120;8.660;2022-12-24T00:26:32;9.83;;;2.70;;
13114;SDS011;6623;52.120;8.660;2022-12-24T00:29:01;11.67;;;3.07;;
13114;SDS011;6623;52.120;8.660;2022-12-24T00:31:27;9.37;;;2.50;;
13114;SDS011;6623;52.120;8.660;2022-12-24T00:33:55;8.63;;;2.60;;
13114;SDS011;6623;52.120;8.660;2022-12-24T00:36:21;8.53;;;2.30;;
13114;SDS011;6623;52.120;8.660;2022-12-24T00:38:46;10.80;;;2.33;;
13114;SDS011;6623;52.120;8.660;2022-12-24T00:41:12;7.83;;;2.30;;
13114;SDS011;6623;52.120;8.660;2022-12-24T00:46:24;8.33;;;2.47;;
13114;SDS011;6623;52.120;8.660;2022-12-24T00:48:50;8.47;;;2.23;;
13114;SDS011;6623;52.120;8.660;2022-12-24T00:51:19;7.80;;;2.23;;
13114;SDS011;6623;52.120;8.660;2022-12-24T00:53:46;7.57;;;2.30;;
13114;SDS011;6623;52.120;8.660;2022-12-24T00:56:17;8.47;;;2.60;;
13114;SDS011;6623;52.120;8.660;2022-12-24T00:58:43;9.70;;;2.93;;
13114;SDS011;6623;52.120;8.660;2022-12-24T01:01:12;10.00;;;2.60;;
13114;SDS011;6623;52.120;8.660;2022-12-24T01:03:37;10.03;;;2.97;;
13114;SDS011;6623;52.120;8.660;2022-12-24T01:06:03;11.27;;;2.77;;
13114;SDS011;6623;52.120;8.660;2022-12-24T01:08:34;10.63;;;2.50;;
13114;SDS011;6623;52.120;8.660;2022-12-24T01:11:01;8.07;;;2.30;;
13114;SDS011;6623;52.120;8.660;2022-12-24T01:13:28;10.10;;;2.37;;
13114;SDS011;6623;52.120;8.660;2022-12-24T01:15:53;12.27;;;3.00;;
13114;SDS011;6623;52.120;8.660;2022-12-24T01:18:19;8.70;;;2.47;;
13114;SDS011;6623;52.120;8.660;2022-12-24T01:20:45;11.20;;;2.73;;
13114;SDS011;6623;52.120;8.660;2022-12-24T01:23:18;6.77;;;2.33;;
13114;SDS011;6623;52.120;8.660;2022-12-24T01:25:44;11.03;;;2.77;;
13114;SDS011;6623;52.120;8.660;2022-12-24T01:28:12;9.73;;;2.40;;
13114;SDS011;6623;52.120;8.660;2022-12-24T01:30:39;9.47;;;2.57;;
13114;SDS011;6623;52.120;8.660;2022-12-24T01:33:05;7.83;;;2.40;;
13114;SDS011;6623;52.120;8.660;2022-12-24T01:35:31;9.90;;;2.50;;
13114;SDS011;6623;52.120;8.660;2022-12-24T01:38:09;9.53;;;2.30;;
13114;SDS011;6623;52.120;8.660;2022-12-24T01:40:36;9.87;;;2.30;;
13114;SDS011;6623;52.120;8.660;2022-12-24T01:43:21;6.33;;;1.73;;
13114;SDS011;6623;52.120;8.660;2022-12-24T01:45:58;7.97;;;2.30;;
13114;SDS011;6623;52.120;8.660;2022-12-24T01:48:38;8.30;;;2.20;;
13114;SDS011;6623;52.120;8.660;2022-12-24T01:53:43;11.07;;;2.53;;
13114;SDS011;6623;52.120;8.660;2022-12-24T01:56:15;12.20;;;2.60;;
13114;SDS011;6623;52.120;8.660;2022-12-24T01:58:42;11.07;;;3.10;;
13114;SDS011;6623;52.120;8.660;2022-12-24T02:01:16;8.53;;;2.73;;
13114;SDS011;6623;52.120;8.660;2022-12-24T02:03:42;10.60;;;2.20;;
13114;SDS011;6623;52.120;8.660;2022-12-24T02:06:10;12.27;;;2.77;;
13114;SDS011;6623;52.120;8.660;2022-12-24T02:08:44;9.70;;;2.60;;
13114;SDS011;6623;52.120;8.660;2022-12-24T02:11:15;10.93;;;2.60;;
13114;SDS011;6623;52.120;8.660;2022-12-24T02:13:46;14.50;;;2.70;;
13114;SDS011;6623;52.120;8.660;2022-12-24T02:21:44;14.73;;;2.83;;
13114;SDS011;6623;52.120;8.660;2022-12-24T02:24:29;11.33;;;2.60;;
13114;SDS011;6623;52.120;8.660;2022-12-24T02:30:23;16.17;;;3.13;;
13114;SDS011;6623;52.120;8.660;2022-12-24T02:32:59;13.60;;;3.07;;
13114;SDS011;6623;52.120;8.660;2022-12-24T02:38:27;10.33;;;2.97;;
13114;SDS011;6623;52.120;8.660;2022-12-24T02:41:02;14.73;;;3.43;;
13114;SDS011;6623;52.120;8.660;2022-12-24T02:43:39;11.73;;;3.33;;
13114;SDS011;6623;52.120;8.660;2022-12-24T02:46:11;13.60;;;3.20;;
13114;SDS011;6623;52.120;8.660;2022-12-24T02:48:42;17.33;;;2.97;;
13114;SDS011;6623;52.120;8.660;2022-12-24T02:51:10;18.33;;;3.60;;
13114;SDS011;6623;52.120;8.660;2022-12-24T02:53:39;13.60;;;3.70;;
13114;SDS011;6623;52.120;8.660;2022-12-24T02:56:20;15.67;;;3.67;;
13114;SDS011;6623;52.120;8.660;2022-12-24T03:01:42;19.20;;;3.60;;
13114;SDS011;6623;52.120;8.660;2022-12-24T03:04:18;16.03;;;3.83;;
13114;SDS011;6623;52.120;8.660;2022-12-24T03:07:27;17.47;;;3.97;;
13114;SDS011;6623;52.120;8.660;2022-12-24T03:12:58;13.87;;;2.50;;
13114;SDS011;6623;52.120;8.660;2022-12-24T03:15:31;12.90;;;3.00;;
13114;SDS011;6623;52.120;8.660;2022-12-24T03:17:59;13.20;;;3.80;;
13114;SDS011;6623;52.120;8.660;2022-12-24T03:20:40;17.30;;;3.60;;
13114;SDS011;6623;52.120;8.660;2022-12-24T03:23:26;14.73;;;3.30;;
13114;SDS011;6623;52.120;8.660;2022-12-24T03:25:52;13.73;;;3.30;;
13114;SDS011;6623;52.120;8.660;2022-12-24T03:28:18;11.03;;;3.10;;
13114;SDS011;6623;52.120;8.660;2022-12-24T03:30:48;13.13;;;3.37;;
13114;SDS011;6623;52.120;8.660;2022-12-24T03:33:14;12.37;;;3.37;;
13114;SDS011;6623;52.120;8.660;2022-12-24T03:35:40;15.50;;;3.40;;
13114;SDS011;6623;52.120;8.660;2022-12-24T03:38:05;18.63;;;4.53;;
13114;SDS011;6623;52.120;8.660;2022-12-24T03:40:31;16.17;;;3.80;;
13114;SDS011;6623;52.120;8.660;2022-12-24T03:42:57;15.57;;;3.40;;
13114;SDS011;6623;52.120;8.660;2022-12-24T03:45:22;16.20;;;3.70;;
13114;SDS011;6623;52.120;8.660;2022-12-24T03:47:48;14.77;;;3.80;;
13114;SDS011;6623;52.120;8.660;2022-12-24T03:50:14;16.10;;;3.63;;
13114;SDS011;6623;52.120;8.660;2022-12-24T03:52:40;15.10;;;4.23;;
13114;SDS011;6623;52.120;8.660;2022-12-24T03:55:05;15.23;;;4.33;;
13114;SDS011;6623;52.120;8.660;2022-12-24T03:57:33;18.53;;;3.67;;
13114;SDS011;6623;52.120;8.660;2022-12-24T03:59:59;14.97;;;3.43;;
13114;SDS011;6623;52.120;8.660;2022-12-24T04:02:31;18.80;;;4.10;;
13114;SDS011;6623;52.120;8.660;2022-12-24T04:04:56;12.53;;;3.63;;
13114;SDS011;6623;52.120;8.660;2022-12-24T04:07:25;20.23;;;4.60;;
13114;SDS011;6623;52.120;8.660;2022-12-24T04:09:51;15.33;;;3.40;;
13114;SDS011;6623;52.120;8.660;2022-12-24T04:12:16;17.53;;;4.10;;
13114;SDS011;6623;52.120;8.660;2022-12-24T04:14:42;17.63;;;4.17;;
13114;SDS011;6623;52.120;8.660;2022-12-24T04:17:10;17.67;;;3.70;;
13114;SDS011;6623;52.120;8.660;2022-12-24T04:19:38;17.70;;;3.80;;
13114;SDS011;6623;52.120;8.660;2022-12-24T04:22:16;20.23;;;4.27;;
13114;SDS011;6623;52.120;8.660;2022-12-24T04:24:42;17.07;;;3.77;;
13114;SDS011;6623;52.120;8.660;2022-12-24T04:27:07;17.57;;;3.80;;
13114;SDS011;6623;52.120;8.660;2022-12-24T04:29:33;20.20;;;4.00;;
13114;SDS011;6623;52.120;8.660;2022-12-24T04:31:58;22.57;;;4.47;;
13114;SDS011;6623;52.120;8.660;2022-12-24T04:34:24;22.33;;;4.53;;
13114;SDS011;6623;52.120;8.660;2022-12-24T04:36:53;16.27;;;3.63;;
13114;SDS011;6623;52.120;8.660;2022-12-24T04:39:19;18.23;;;3.30;;
13114;SDS011;6623;52.120;8.660;2022-12-24T04:41:50;20.77;;;4.10;;
13114;SDS011;6623;52.120;8.660;2022-12-24T04:44:27;18.03;;;4.57;;
13114;SDS011;6623;52.120;8.660;2022-12-24T04:46:52;25.83;;;4.63;;
13114;SDS011;6623;52.120;8.660;2022-12-24T04:49:18;24.80;;;5.30;;
13114;SDS011;6623;52.120;8.660;2022-12-24T04:51:46;24.67;;;4.17;;
13114;SDS011;6623;52.120;8.660;2022-12-24T04:54:14;22.53;;;4.50;;
13114;SDS011;6623;52.120;8.660;2022-12-24T04:56:40;17.73;;;4.57;;
13114;SDS011;6623;52.120;8.660;2022-12-24T04:59:08;19.37;;;4.53;;
13114;SDS011;6623;52.120;8.660;2022-12-24T05:01:34;18.57;;;3.80;;
13114;SDS011;6623;52.120;8.660;2022-12-24T05:03:59;21.07;;;4.90;;
13114;SDS011;6623;52.120;8.660;2022-12-24T05:06:31;18.90;;;3.90;;
13114;SDS011;6623;52.120;8.660;2022-12-24T05:08:57;22.93;;;4.73;;
13114;SDS011;6623;52.120;8.660;2022-12-24T05:11:26;20.90;;;4.57;;
13114;SDS011;6623;52.120;8.660;2022-12-24T05:13:52;20.87;;;4.27;;
13114;SDS011;6623;52.120;8.660;2022-12-24T05:16:24;18.23;;;4.30;;
13114;SDS011;6623;52.120;8.660;2022-12-24T05:18:49;23.50;;;4.27;;
13114;SDS011;6623;52.120;8.660;2022-12-24T05:21:16;19.37;;;4.87;;
13114;SDS011;6623;52.120;8.660;2022-12-24T05:23:44;19.63;;;4.73;;
13114;SDS011;6623;52.120;8.660;2022-12-24T05:29:18;20.77;;;4.33;;
13114;SDS011;6623;52.120;8.660;2022-12-24T05:31:43;24.87;;;4.10;;
13114;SDS011;6623;52.120;8.660;2022-12-24T05:34:15;17.40;;;4.43;;
13114;SDS011;6623;52.120;8.660;2022-12-24T05:36:41;24.53;;;3.77;;
13114;SDS011;6623;52.120;8.660;2022-12-24T05:39:09;14.90;;;4.43;;
13114;SDS011;6623;52.120;8.660;2022-12-24T05:41:41;21.37;;;4.60;;
13114;SDS011;6623;52.120;8.660;2022-12-24T05:44:07;19.90;;;4.80;;
13114;SDS011;6623;52.120;8.660;2022-12-24T05:46:33;20.23;;;4.07;;
13114;SDS011;6623;52.120;8.660;2022-12-24T05:48:58;25.50;;;4.23;;
13114;SDS011;6623;52.120;8.660;2022-12-24T05:51:24;21.67;;;3.77;;
13114;SDS011;6623;52.120;8.660;2022-12-24T05:53:52;22.67;;;4.47;;
13114;SDS011;6623;52.120;8.660;2022-12-24T05:56:19;18.37;;;4.43;;
13114;SDS011;6623;52.120;8.660;2022-12-24T05:58:46;21.47;;;3.77;;
13114;SDS011;6623;52.120;8.660;2022-12-24T06:01:16;22.70;;;5.17;;
13114;SDS011;6623;52.120;8.660;2022-12-24T06:03:45;20.30;;;4.73;;
13114;SDS011;6623;52.120;8.660;2022-12-24T06:06:14;20.67;;;4.03;;
13114;SDS011;6623;52.120;8.660;2022-12-24T06:08:44;19.60;;;4.73;;
13114;SDS011;6623;52.120;8.660;2022-12-24T06:11:11;19.40;;;4.60;;
13114;SDS011;6623;52.120;8.660;2022-12-24T06:13:38;20.83;;;4.77;;
13114;SDS011;6623;52.120;8.660;2022-12-24T06:16:05;25.60;;;5.20;;
13114;SDS011;6623;52.120;8.660;2022-12-24T06:18:33;17.47;;;4.60;;
13114;SDS011;6623;52.120;8.660;2022-12-24T06:21:00;22.83;;;4.83;;
13114;SDS011;6623;52.120;8.660;2022-12-24T06:23:27;24.33;;;4.97;;
13114;SDS011;6623;52.120;8.660;2022-12-24T06:25:55;21.83;;;4.80;;
13114;SDS011;6623;52.120;8.660;2022-12-24T06:28:22;21.57;;;4.80;;
13114;SDS011;6623;52.120;8.660;2022-12-24T06:30:48;20.67;;;5.20;;
13114;SDS011;6623;52.120;8.660;2022-12-24T06:33:15;23.13;;;5.60;;
13114;SDS011;6623;52.120;8.660;2022-12-24T06:35:41;23.33;;;4.50;;
13114;SDS011;6623;52.120;8.660;2022-12-24T06:38:08;23.60;;;5.00;;
13114;SDS011;6623;52.120;8.660;2022-12-24T06:40:33;25.23;;;5.07;;
13114;SDS011;6623;52.120;8.660;2022-12-24T06:42:59;20.47;;;4.73;;
13114;SDS011;6623;52.120;8.660;2022-12-24T06:45:24;24.77;;;5.67;;
13114;SDS011;6623;52.120;8.660;2022-12-24T06:47:50;20.53;;;5.13;;
13114;SDS011;6623;52.120;8.660;2022-12-24T06:50:15;25.37;;;5.00;;
13114;SDS011;6623;52.120;8.660;2022-12-24T06:52:41;20.80;;;5.17;;
13114;SDS011;6623;52.120;8.660;2022-12-24T06:55:07;26.30;;;5.53;;
13114;SDS011;6623;52.120;8.660;2022-12-24T06:57:33;26.73;;;5.97;;
13114;SDS011;6623;52.120;8.660;2022-12-24T06:59:58;27.90;;;5.80;;
13114;SDS011;6623;52.120;8.660;2022-12-24T07:02:24;25.47;;;5.80;;
13114;SDS011;6623;52.120;8.660;2022-12-24T07:04:53;33.87;;;6.60;;
13114;SDS011;6623;52.120;8.660;2022-12-24T07:07:18;30.47;;;6.63;;
13114;SDS011;6623;52.120;8.660;2022-12-24T07:09:44;22.93;;;6.20;;
13114;SDS011;6623;52.120;8.660;2022-12-24T07:12:09;28.20;;;6.97;;
13114;SDS011;6623;52.120;8.660;2022-12-24T07:14:35;28.43;;;6.57;;
13114;SDS011;6623;52.120;8.660;2022-12-24T07:17:00;29.77;;;7.17;;
13114;SDS011;6623;52.120;8.660;2022-12-24T07:19:26;25.77;;;6.80;;
13114;SDS011;6623;52.120;8.660;2022-12-24T07:21:51;27.97;;;6.50;;
13114;SDS011;6623;52.120;8.660;2022-12-24T07:24:17;23.23;;;7.57;;
13114;SDS011;6623;52.120;8.660;2022-12-24T07:26:44;27.67;;;7.23;;
13114;SDS011;6623;52.120;8.660;2022-12-24T07:29:10;26.83;;;7.70;;
13114;SDS011;6623;52.120;8.660;2022-12-24T07:31:39;28.63;;;6.97;;
13114;SDS011;6623;52.120;8.660;2022-12-24T07:34:04;25.33;;;7.17;;
13114;SDS011;6623;52.120;8.660;2022-12-24T07:36:30;25.77;;;7.43;;
13114;SDS011;6623;52.120;8.660;2022-12-24T07:38:55;28.80;;;7.57;;
13114;SDS011;6623;52.120;8.660;2022-12-24T07:41:21;24.20;;;7.27;;
13114;SDS011;6623;52.120;8.660;2022-12-24T07:43:46;25.83;;;7.30;;
13114;SDS011;6623;52.120;8.660;2022-12-24T07:46:19;24.77;;;7.40;;
13114;SDS011;6623;52.120;8.660;2022-12-24T07:48:48;24.67;;;7.60;;
13114;SDS011;6623;52.120;8.660;2022-12-24T07:51:16;23.57;;;7.73;;
13114;SDS011;6623;52.120;8.660;2022-12-24T07:53:42;24.47;;;7.80;;
13114;SDS011;6623;52.120;8.660;2022-12-24T07:56:12;30.13;;;7.83;;
13114;SDS011;6623;52.120;8.660;2022-12-24T07:58:39;24.93;;;7.40;;
13114;SDS011;6623;52.120;8.660;2022-12-24T08:01:06;28.73;;;8.07;;
13114;SDS011;6623;52.120;8.660;2022-12-24T08:03:32;20.73;;;7.40;;
13114;SDS011;6623;52.120;8.660;2022-12-24T08:05:58;24.03;;;7.17;;
13114;SDS011;6623;52.120;8.660;2022-12-24T08:08:26;25.90;;;7.17;;
13114;SDS011;6623;52.120;8.660;2022-12-24T08:10:51;27.23;;;7.73;;
13114;SDS011;6623;52.120;8.660;2022-12-24T08:13:17;25.30;;;8.60;;
13114;SDS011;6623;52.120;8.660;2022-12-24T08:15:44;26.57;;;7.43;;
13114;SDS011;6623;52.120;8.660;2022-12-24T08:18:10;25.90;;;8.17;;
13114;SDS011;6623;52.120;8.660;2022-12-24T08:20:39;26.73;;;8.40;;
13114;SDS011;6623;52.120;8.660;2022-12-24T08:23:06;23.57;;;7.93;;
13114;SDS011;6623;52.120;8.660;2022-12-24T08:25:32;27.47;;;8.07;;
13114;SDS011;6623;52.120;8.660;2022-12-24T08:28:00;23.20;;;8.00;;
13114;SDS011;6623;52.120;8.660;2022-12-24T08:30:26;23.63;;;9.17;;
13114;SDS011;6623;52.120;8.660;2022-12-24T08:32:51;28.03;;;9.20;;
13114;SDS011;6623;52.120;8.660;2022-12-24T08:35:20;20.07;;;9.07;;
13114;SDS011;6623;52.120;8.660;2022-12-24T08:37:45;23.20;;;9.10;;
13114;SDS011;6623;52.120;8.660;2022-12-24T08:40:11;30.03;;;9.53;;
13114;SDS011;6623;52.120;8.660;2022-12-24T08:42:37;24.90;;;9.70;;
13114;SDS011;6623;52.120;8.660;2022-12-24T08:45:02;20.10;;;8.87;;
13114;SDS011;6623;52.120;8.660;2022-12-24T08:47:28;20.27;;;8.57;;
13114;SDS011;6623;52.120;8.660;2022-12-24T08:49:54;18.47;;;7.57;;
13114;SDS011;6623;52.120;8.660;2022-12-24T08:52:19;19.63;;;7.50;;
13114;SDS011;6623;52.120;8.660;2022-12-24T08:54:45;17.23;;;6.60;;
13114;SDS011;6623;52.120;8.660;2022-12-24T08:57:10;20.73;;;6.83;;
13114;SDS011;6623;52.120;8.660;2022-12-24T08:59:36;25.83;;;6.80;;
13114;SDS011;6623;52.120;8.660;2022-12-24T09:02:04;20.13;;;6.17;;
13114;SDS011;6623;52.120;8.660;2022-12-24T09:04:30;18.00;;;6.47;;
13114;SDS011;6623;52.120;8.660;2022-12-24T09:06:55;15.73;;;5.90;;
13114;SDS011;6623;52.120;8.660;2022-12-24T09:09:21;19.67;;;7.03;;
13114;SDS011;6623;52.120;8.660;2022-12-24T09:11:47;17.97;;;6.20;;
13114;SDS011;6623;52.120;8.660;2022-12-24T09:14:15;17.50;;;6.27;;
13114;SDS011;6623;52.120;8.660;2022-12-24T09:16:40;14.87;;;5.67;;
13114;SDS011;6623;52.120;8.660;2022-12-24T09:19:09;15.90;;;5.70;;
13114;SDS011;6623;52.120;8.660;2022-12-24T09:21:34;18.90;;;6.30;;
13114;SDS011;6623;52.120;8.660;2022-12-24T09:24:00;20.27;;;5.67;;
13114;SDS011;6623;52.120;8.660;2022-12-24T09:26:28;10.87;;;4.60;;
13114;SDS011;6623;52.120;8.660;2022-12-24T09:28:55;16.03;;;5.23;;
13114;SDS011;6623;52.120;8.660;2022-12-24T09:31:21;13.77;;;5.23;;
13114;SDS011;6623;52.120;8.660;2022-12-24T09:33:47;12.03;;;5.20;;
13114;SDS011;6623;52.120;8.660;2022-12-24T09:36:14;13.03;;;4.60;;
13114;SDS011;6623;52.120;8.660;2022-12-24T09:38:43;13.33;;;4.47;;
13114;SDS011;6623;52.120;8.660;2022-12-24T09:41:10;14.17;;;5.23;;
13114;SDS011;6623;52.120;8.660;2022-12-24T09:43:39;9.63;;;4.40;;
13114;SDS011;6623;52.120;8.660;2022-12-24T09:46:27;9.70;;;3.93;;
13114;SDS011;6623;52.120;8.660;2022-12-24T09:49:05;12.97;;;4.67;;
13114;SDS011;6623;52.120;8.660;2022-12-24T09:51:42;14.57;;;4.83;;
13114;SDS011;6623;52.120;8.660;2022-12-24T09:54:17;11.77;;;4.97;;
13114;SDS011;6623;52.120;8.660;2022-12-24T09:56:48;14.10;;;5.57;;
13114;SDS011;6623;52.120;8.660;2022-12-24T09:59:17;13.47;;;5.67;;
13114;SDS011;6623;52.120;8.660;2022-12-24T10:01:46;14.10;;;5.80;;
13114;SDS011;6623;52.120;8.660;2022-12-24T10:04:15;17.57;;;5.60;;
13114;SDS011;6623;52.120;8.660;2022-12-24T10:12:35;21.37;;;6.13;;
13114;SDS011;6623;52.120;8.660;2022-12-24T10:15:15;18.40;;;6.23;;
13114;SDS011;6623;52.120;8.660;2022-12-24T10:23:12;22.27;;;7.27;;
13114;SDS011;6623;52.120;8.660;2022-12-24T10:25:52;20.43;;;6.33;;
13114;SDS011;6623;52.120;8.660;2022-12-24T10:31:16;17.40;;;5.20;;
13114;SDS011;6623;52.120;8.660;2022-12-24T10:33:54;19.13;;;5.43;;
13114;SDS011;6623;52.120;8.660;2022-12-24T10:36:33;17.63;;;5.70;;
13114;SDS011;6623;52.120;8.660;2022-12-24T10:39:01;21.67;;;6.27;;
13114;SDS011;6623;52.120;8.660;2022-12-24T10:41:27;21.40;;;5.70;;
13114;SDS011;6623;52.120;8.660;2022-12-24T10:43:54;19.27;;;6.07;;
13114;SDS011;6623;52.120;8.660;2022-12-24T10:46:21;19.20;;;5.57;;
13114;SDS011;6623;52.120;8.660;2022-12-24T10:48:52;19.03;;;5.93;;
13114;SDS011;6623;52.120;8.660;2022-12-24T10:56:54;16.33;;;4.80;;
13114;SDS011;6623;52.120;8.660;2022-12-24T10:59:25;16.53;;;5.17;;
13114;SDS011;6623;52.120;8.660;2022-12-24T11:01:58;25.03;;;5.90;;
13114;SDS011;6623;52.120;8.660;2022-12-24T11:04:30;18.43;;;5.63;;
13114;SDS011;6623;52.120;8.660;2022-12-24T11:09:43;18.33;;;4.60;;
13114;SDS011;6623;52.120;8.660;2022-12-24T11:12:20;15.67;;;4.67;;
13114;SDS011;6623;52.120;8.660;2022-12-24T11:14:52;16.00;;;4.90;;
13114;SDS011;6623;52.120;8.660;2022-12-24T11:17:41;16.87;;;4.93;;
13114;SDS011;6623;52.120;8.660;2022-12-24T11:20:16;17.03;;;4.70;;
13114;SDS011;6623;52.120;8.660;2022-12-24T11:22:47;17.90;;;4.50;;
13114;SDS011;6623;52.120;8.660;2022-12-24T11:25:26;16.30;;;4.87;;
13114;SDS011;6623;52.120;8.660;2022-12-24T11:28:18;17.87;;;4.90;;
13114;SDS011;6623;52.120;8.660;2022-12-24T11:33:28;19.20;;;5.10;;
13114;SDS011;6623;52.120;8.660;2022-12-24T11:36:10;15.40;;;5.03;;
13114;SDS011;6623;52.120;8.660;2022-12-24T11:38:37;13.80;;;4.67;;
13114;SDS011;6623;52.120;8.660;2022-12-24T11:41:04;17.67;;;4.97;;
13114;SDS011;6623;52.120;8.660;2022-12-24T11:43:42;19.67;;;5.23;;
13114;SDS011;6623;52.120;8.660;2022-12-24T11:46:55;16.00;;;5.00;;
13114;SDS011;6623;52.120;8.660;2022-12-24T11:49:15;18.97;;;4.80;;
13114;SDS011;6623;52.120;8.660;2022-12-24T11:54:36;19.47;;;5.20;;
13114;SDS011;6623;52.120;8.660;2022-12-24T11:57:26;20.20;;;5.37;;
13114;SDS011;6623;52.120;8.660;2022-12-24T12:00:04;18.00;;;5.00;;
13114;SDS011;6623;52.120;8.660;2022-12-24T12:02:37;17.50;;;5.07;;
13114;SDS011;6623;52.120;8.660;2022-12-24T12:05:10;17.63;;;4.67;;
13114;SDS011;6623;52.120;8.660;2022-12-24T12:07:52;17.30;;;4.70;;
13114;SDS011;6623;52.120;8.660;2022-12-24T12:10:31;18.10;;;4.73;;
13114;SDS011;6623;52.120;8.660;2022-12-24T12:13:04;15.20;;;4.30;;
13114;SDS011;6623;52.120;8.660;2022-12-24T12:15:36;19.90;;;4.47;;
13114;SDS011;6623;52.120;8.660;2022-12-24T12:18:17;18.43;;;4.70;;
13114;SDS011;6623;52.120;8.660;2022-12-24T12:20:47;17.87;;;4.50;;
13114;SDS011;6623;52.120;8.660;2022-12-24T12:25:53;16.27;;;4.83;;
13114;SDS011;6623;52.120;8.660;2022-12-24T12:34:11;19.03;;;4.47;;
13114;SDS011;6623;52.120;8.660;2022-12-24T12:36:45;19.43;;;4.80;;
13114;SDS011;6623;52.120;8.660;2022-12-24T12:39:13;16.13;;;4.07;;
13114;SDS011;6623;52.120;8.660;2022-12-24T12:47:07;19.47;;;4.97;;
13114;SDS011;6623;52.120;8.660;2022-12-24T12:49:52;17.10;;;4.60;;
13114;SDS011;6623;52.120;8.660;2022-12-24T12:55:21;16.67;;;4.80;;
13114;SDS011;6623;52.120;8.660;2022-12-24T12:58:03;17.37;;;4.70;;
13114;SDS011;6623;52.120;8.660;2022-12-24T13:00:57;18.67;;;5.47;;
13114;SDS011;6623;52.120;8.660;2022-12-24T13:03:52;16.63;;;4.30;;
13114;SDS011;6623;52.120;8.660;2022-12-24T13:20:20;17.47;;;4.80;;
13114;SDS011;6623;52.120;8.660;2022-12-24T13:23:02;16.67;;;4.30;;
13114;SDS011;6623;52.120;8.660;2022-12-24T13:30:44;19.27;;;4.53;;
13114;SDS011;6623;52.120;8.660;2022-12-24T13:33:11;19.50;;;4.23;;
13114;SDS011;6623;52.120;8.660;2022-12-24T13:35:55;13.20;;;4.13;;
13114;SDS011;6623;52.120;8.660;2022-12-24T13:40:52;13.53;;;3.97;;
13114;SDS011;6623;52.120;8.660;2022-12-24T13:43:18;15.00;;;4.40;;
13114;SDS011;6623;52.120;8.660;2022-12-24T13:45:44;15.67;;;3.93;;
13114;SDS011;6623;52.120;8.660;2022-12-24T13:48:15;17.93;;;3.97;;
13114;SDS011;6623;52.120;8.660;2022-12-24T13:53:22;13.93;;;4.10;;
13114;SDS011;6623;52.120;8.660;2022-12-24T13:56:02;18.27;;;4.77;;
13114;SDS011;6623;52.120;8.660;2022-12-24T13:58:35;15.20;;;4.20;;
13114;SDS011;6623;52.120;8.660;2022-12-24T14:01:08;18.53;;;4.77;;
13114;SDS011;6623;52.120;8.660;2022-12-24T14:03:41;17.03;;;4.67;;
13114;SDS011;6623;52.120;8.660;2022-12-24T14:06:24;19.33;;;4.23;;
13114;SDS011;6623;52.120;8.660;2022-12-24T14:08:53;15.67;;;4.17;;
13114;SDS011;6623;52.120;8.660;2022-12-24T14:14:31;19.23;;;4.13;;
13114;SDS011;6623;52.120;8.660;2022-12-24T14:19:53;18.50;;;4.30;;
13114;SDS011;6623;52.120;8.660;2022-12-24T14:25:29;22.87;;;6.03;;
13114;SDS011;6623;52.120;8.660;2022-12-24T14:27:56;17.10;;;4.77;;
13114;SDS011;6623;52.120;8.660;2022-12-24T14:30:31;17.73;;;4.13;;
13114;SDS011;6623;52.120;8.660;2022-12-24T14:32:56;15.77;;;4.37;;
13114;SDS011;6623;52.120;8.660;2022-12-24T14:35:29;16.90;;;4.23;;
13114;SDS011;6623;52.120;8.660;2022-12-24T14:38:04;14.77;;;3.97;;
13114;SDS011;6623;52.120;8.660;2022-12-24T14:40:37;16.23;;;4.07;;
13114;SDS011;6623;52.120;8.660;2022-12-24T14:43:27;16.17;;;4.00;;
13114;SDS011;6623;52.120;8.660;2022-12-24T14:46:46;14.90;;;4.13;;
13114;SDS011;6623;52.120;8.660;2022-12-24T14:52:28;15.03;;;3.90;;
13114;SDS011;6623;52.120;8.660;2022-12-24T14:55:00;17.03;;;4.07;;
13114;SDS011;6623;52.120;8.660;2022-12-24T15:01:01;15.37;;;3.73;;
13114;SDS011;6623;52.120;8.660;2022-12-24T15:03:41;16.03;;;4.23;;
13114;SDS011;6623;52.120;8.660;2022-12-24T15:06:07;22.03;;;4.40;;
13114;SDS011;6623;52.120;8.660;2022-12-24T15:08:38;20.50;;;4.07;;
13114;SDS011;6623;52.120;8.660;2022-12-24T15:11:15;18.30;;;4.43;;
13114;SDS011;6623;52.120;8.660;2022-12-24T15:13:45;16.20;;;4.33;;
13114;SDS011;6623;52.120;8.660;2022-12-24T15:16:30;19.10;;;4.67;;
13114;SDS011;6623;52.120;8.660;2022-12-24T15:19:18;20.17;;;4.77;;
13114;SDS011;6623;52.120;8.660;2022-12-24T15:21:53;14.63;;;3.73;;
13114;SDS011;6623;52.120;8.660;2022-12-24T15:26:48;17.00;;;4.57;;
13114;SDS011;6623;52.120;8.660;2022-12-24T15:29:18;14.20;;;4.37;;
13114;SDS011;6623;52.120;8.660;2022-12-24T15:32:00;14.47;;;3.77;;
13114;SDS011;6623;52.120;8.660;2022-12-24T15:34:34;17.30;;;5.03;;
13114;SDS011;6623;52.120;8.660;2022-12-24T15:37:03;20.97;;;4.70;;
13114;SDS011;6623;52.120;8.660;2022-12-24T15:39:39;15.30;;;4.43;;
13114;SDS011;6623;52.120;8.660;2022-12-24T15:42:05;16.67;;;4.20;;
13114;SDS011;6623;52.120;8.660;2022-12-24T15:44:39;19.10;;;4.67;;
13114;SDS011;6623;52.120;8.660;2022-12-24T15:47:15;19.97;;;4.60;;
13114;SDS011;6623;52.120;8.660;2022-12-24T15:49:43;17.23;;;3.90;;
13114;SDS011;6623;52.120;8.660;2022-12-24T15:52:16;19.17;;;4.30;;
13114;SDS011;6623;52.120;8.660;2022-12-24T15:54:48;17.47;;;4.83;;
13114;SDS011;6623;52.120;8.660;2022-12-24T15:57:20;19.20;;;4.50;;
13114;SDS011;6623;52.120;8.660;2022-12-24T15:59:50;14.80;;;4.20;;
13114;SDS011;6623;52.120;8.660;2022-12-24T16:05:16;18.83;;;4.87;;
13114;SDS011;6623;52.120;8.660;2022-12-24T16:08:43;15.57;;;3.63;;
13114;SDS011;6623;52.120;8.660;2022-12-24T16:13:38;16.80;;;4.93;;
13114;SDS011;6623;52.120;8.660;2022-12-24T16:16:13;20.43;;;5.67;;
13114;SDS011;6623;52.120;8.660;2022-12-24T16:21:34;18.87;;;5.40;;
13114;SDS011;6623;52.120;8.660;2022-12-24T16:24:06;17.30;;;5.47;;
13114;SDS011;6623;52.120;8.660;2022-12-24T16:26:39;20.97;;;6.20;;
13114;SDS011;6623;52.120;8.660;2022-12-24T16:29:11;25.50;;;6.10;;
13114;SDS011;6623;52.120;8.660;2022-12-24T16:31:38;16.83;;;5.27;;
13114;SDS011;6623;52.120;8.660;2022-12-24T16:34:12;17.83;;;5.40;;
13114;SDS011;6623;52.120;8.660;2022-12-24T16:36:39;15.63;;;5.63;;
13114;SDS011;6623;52.120;8.660;2022-12-24T16:39:14;22.17;;;5.93;;
13114;SDS011;6623;52.120;8.660;2022-12-24T16:41:52;23.07;;;5.90;;
13114;SDS011;6623;52.120;8.660;2022-12-24T16:44:45;20.57;;;5.67;;
13114;SDS011;6623;52.120;8.660;2022-12-24T16:47:17;19.23;;;5.70;;
13114;SDS011;6623;52.120;8.660;2022-12-24T16:49:45;19.10;;;5.80;;
13114;SDS011;6623;52.120;8.660;2022-12-24T16:52:21;20.73;;;6.03;;
13114;SDS011;6623;52.120;8.660;2022-12-24T16:54:50;18.33;;;5.87;;
13114;SDS011;6623;52.120;8.660;2022-12-24T16:57:16;21.63;;;5.80;;
13114;SDS011;6623;52.120;8.660;2022-12-24T16:59:42;28.43;;;6.33;;
13114;SDS011;6623;52.120;8.660;2022-12-24T17:02:09;29.80;;;11.13;;
13114;SDS011;6623;52.120;8.660;2022-12-24T17:04:37;19.37;;;6.17;;
13114;SDS011;6623;52.120;8.660;2022-12-24T17:07:03;24.73;;;6.53;;
13114;SDS011;6623;52.120;8.660;2022-12-24T17:09:29;21.87;;;6.53;;